Time;durP1;ratioP1;P1;durP2;ratioP2;P2;SDS_P1;SDS_P2;PMS_P1;PMS_P2;Temp;Humidity;BMP_temperature;BMP_pressure;BME280_temperature;BME280_humidity;BME280_pressure;Samples;Min_cycle;Max_cycle;Signal;HPM_P1;HPM_P2
2024/03/31 00:00:26;;;;;;;;;;;;;;;17.11;46.38;98881.53;4950794;27;99867;-75
2024/03/31 00:02:55;;;;;;;;;;;;;;;17.11;46.26;98881.53;4938246;27;99037;-75
2024/03/31 00:05:21;;;;;;;;;;;;;;;17.10;46.42;98874.53;4924566;27;99471;-68
2024/03/31 00:07:48;;;;;;;;;;;;;;;17.11;46.34;98881.53;4925001;28;98284;-75
2024/03/31 00:10:14;;;;;;;;;;;;;;;17.09;46.32;98876.41;4938831;27;98252;-68
2024/03/31 00:12:44;;;;;;;;;;;;;;;17.09;46.41;98868.25;4939839;27;98256;-68
2024/03/31 00:15:10;;;;;;;;;;;;;;;17.08;46.48;98869.41;4952806;27;98293;-68
2024/03/31 00:17:36;;;;;;;;;;;;;;;17.09;46.25;98875.63;4953847;27;98289;-68
2024/03/31 00:20:03;;;;;;;;;;;;;;;17.09;46.27;98870.97;4937175;27;98529;-68
2024/03/31 00:22:29;;;;;;;;;;;;;;;17.08;46.36;98874.84;4946903;27;98231;-68
2024/03/31 00:24:56;;;;;;;;;;;;;;;17.07;46.51;98875.22;4940793;28;98631;-68
2024/03/31 00:27:23;;;;;;;;;;;;;;;17.06;46.43;98874.41;4923553;27;98286;-68
2024/03/31 00:29:49;;;;;;;;;;;;;;;17.06;46.51;98873.63;4949373;28;98042;-68
2024/03/31 00:32:16;;;;;;;;;;;;;;;17.06;46.36;98876.34;4965286;27;98158;-75
2024/03/31 00:34:42;;;;;;;;;;;;;;;17.04;46.53;98873.97;4918708;28;99425;-75
2024/03/31 00:37:08;;;;;;;;;;;;;;;17.04;46.42;98879.41;4922262;27;100067;-68
2024/03/31 00:39:35;;;;;;;;;;;;;;;17.01;46.42;98874.66;4921241;27;100562;-68
2024/03/31 00:42:02;;;;;;;;;;;;;;;17.01;46.25;98871.16;4919067;27;98064;-68
2024/03/31 00:44:30;;;;;;;;;;;;;;;17.00;46.54;98866.84;4957894;28;101129;-75
2024/03/31 00:46:56;;;;;;;;;;;;;;;16.98;46.51;98871.84;4941847;28;98140;-75
2024/03/31 00:49:22;;;;;;;;;;;;;;;16.96;46.56;98874.91;4936116;27;98584;-75
2024/03/31 00:51:48;;;;;;;;;;;;;;;16.96;46.56;98865.97;4919623;28;98901;-69
2024/03/31 00:54:15;;;;;;;;;;;;;;;16.95;46.41;98869.84;4946812;27;98464;-75
2024/03/31 00:56:41;;;;;;;;;;;;;;;16.93;46.44;98868.22;4940319;27;98129;-69
2024/03/31 00:59:07;;;;;;;;;;;;;;;16.91;46.62;98870.53;4909560;28;98119;-69
2024/03/31 01:01:33;;;;;;;;;;;;;;;16.90;46.42;98871.66;4938816;28;102199;-75
2024/03/31 01:04:00;;;;;;;;;;;;;;;16.90;46.62;98874.38;4921879;27;98086;-69
2024/03/31 01:06:27;;;;;;;;;;;;;;;16.88;46.46;98871.22;4927366;27;98470;-68
2024/03/31 01:08:53;;;;;;;;;;;;;;;16.88;46.49;98881.31;4942182;28;98538;-69
2024/03/31 01:11:19;;;;;;;;;;;;;;;16.87;46.48;98871.56;4938751;27;98459;-69
2024/03/31 01:13:49;;;;;;;;;;;;;;;16.84;46.63;98872.25;4941766;27;98422;-76
2024/03/31 01:16:15;;;;;;;;;;;;;;;16.83;46.46;98868.75;4943815;27;97872;-69
2024/03/31 01:18:42;;;;;;;;;;;;;;;16.82;46.64;98869.88;4940042;27;99608;-69
2024/03/31 01:21:08;;;;;;;;;;;;;;;16.80;46.51;98865.91;4953744;28;98120;-68
2024/03/31 01:23:52;;;;;;;;;;;;;;;16.79;46.54;98861.63;4954288;27;98120;-69
2024/03/31 01:26:19;;;;;;;;;;;;;;;16.77;46.63;98870.13;4952477;27;98854;-75
2024/03/31 01:28:45;;;;;;;;;;;;;;;16.75;46.69;98863.47;4921087;27;99917;-68
2024/03/31 01:31:12;;;;;;;;;;;;;;;16.73;46.60;98860.25;4934621;27;98314;-75
2024/03/31 01:33:39;;;;;;;;;;;;;;;16.71;46.51;98865.25;4957748;28;98082;-75
2024/03/31 01:36:07;;;;;;;;;;;;;;;16.69;46.70;98865.59;4925452;28;98200;-75
2024/03/31 01:38:36;;;;;;;;;;;;;;;16.66;46.62;98872.53;4958557;27;98042;-75
2024/03/31 01:41:02;;;;;;;;;;;;;;;16.63;46.58;98864.28;4943816;27;97964;-75
2024/03/31 01:43:29;;;;;;;;;;;;;;;16.62;46.71;98868.09;4956793;27;98958;-68
2024/03/31 01:45:56;;;;;;;;;;;;;;;16.58;46.67;98872.66;4923906;27;98307;-68
2024/03/31 01:48:22;;;;;;;;;;;;;;;16.56;46.63;98874.94;4936020;27;99424;-76
2024/03/31 01:50:52;;;;;;;;;;;;;;;16.52;46.66;98869.41;4921408;28;98414;-75
2024/03/31 01:53:19;;;;;;;;;;;;;;;16.51;46.67;98878.69;4954527;27;98137;-76
2024/03/31 01:55:46;;;;;;;;;;;;;;;16.48;46.57;98875.88;4927843;28;97945;-75
2024/03/31 01:58:13;;;;;;;;;;;;;;;16.45;46.82;98880.84;4936280;27;98817;-75
2024/03/31 02:00:40;;;;;;;;;;;;;;;16.43;46.60;98885.06;4940760;28;98076;-69
2024/03/31 02:03:06;;;;;;;;;;;;;;;16.40;46.64;98878.38;4920937;27;97982;-68
2024/03/31 02:05:33;;;;;;;;;;;;;;;16.38;46.82;98877.13;4946490;27;98134;-76
2024/03/31 02:08:02;;;;;;;;;;;;;;;16.35;46.63;98872.41;4958339;28;98790;-75
2024/03/31 02:10:28;;;;;;;;;;;;;;;16.33;46.61;98866.50;4959348;27;98276;-75
2024/03/31 02:12:54;;;;;;;;;;;;;;;16.30;46.50;98861.75;4938255;28;98492;-68
2024/03/31 02:15:20;;;;;;;;;;;;;;;16.28;46.78;98861.31;4941674;27;128130;-68
2024/03/31 02:17:46;;;;;;;;;;;;;;;16.26;46.70;98866.28;4954072;28;98523;-68
2024/03/31 02:20:14;;;;;;;;;;;;;;;16.22;46.83;98858.03;4945402;28;98599;-69
2024/03/31 02:22:40;;;;;;;;;;;;;;;16.19;46.89;98861.41;4941605;27;98264;-75
2024/03/31 02:25:06;;;;;;;;;;;;;;;16.18;46.74;98863.34;4938598;27;98389;-68
2024/03/31 02:27:32;;;;;;;;;;;;;;;16.16;46.82;98876.50;4939313;27;98058;-69
2024/03/31 02:29:59;;;;;;;;;;;;;;;16.13;46.76;98869.03;4954986;27;98464;-76
2024/03/31 02:32:26;;;;;;;;;;;;;;;16.12;46.76;98877.53;4956248;27;98408;-76
2024/03/31 02:34:54;;;;;;;;;;;;;;;16.11;46.76;98881.38;4944162;28;99054;-75
2024/03/31 02:37:20;;;;;;;;;;;;;;;16.09;46.80;98872.78;4956714;28;100049;-75
2024/03/31 02:39:47;;;;;;;;;;;;;;;16.07;46.96;98877.75;4946795;27;97987;-69
2024/03/31 02:42:14;;;;;;;;;;;;;;;16.04;47.02;98884.69;4936488;28;98075;-76
2024/03/31 02:44:41;;;;;;;;;;;;;;;16.02;46.68;98878.00;4943271;27;98359;-76
2024/03/31 02:47:07;;;;;;;;;;;;;;;16.00;46.94;98885.72;4952503;28;99982;-69
2024/03/31 02:49:33;;;;;;;;;;;;;;;16.00;46.74;98896.59;4922013;27;98372;-68
2024/03/31 02:52:02;;;;;;;;;;;;;;;15.97;46.93;98894.53;4974400;27;98077;-75
2024/03/31 02:54:28;;;;;;;;;;;;;;;15.95;46.85;98895.69;4919940;27;98292;-75
2024/03/31 02:56:55;;;;;;;;;;;;;;;15.94;46.84;98890.56;4920250;27;98485;-68
2024/03/31 02:59:21;;;;;;;;;;;;;;;15.92;46.75;98893.63;4939906;27;98149;-68
2024/03/31 03:01:47;;;;;;;;;;;;;;;15.91;46.76;98893.97;4924750;27;97939;-68
2024/03/31 03:04:15;;;;;;;;;;;;;;;15.89;47.03;98898.97;4918620;28;98310;-76
2024/03/31 03:06:42;;;;;;;;;;;;;;;15.88;46.88;98898.16;4925599;27;99282;-75
2024/03/31 03:09:08;;;;;;;;;;;;;;;15.86;46.91;98897.69;4938267;28;98269;-76
2024/03/31 03:11:35;;;;;;;;;;;;;;;15.84;46.88;98894.53;4944171;27;98646;-68
2024/03/31 03:14:01;;;;;;;;;;;;;;;15.84;46.85;98899.97;4942054;27;98115;-68
2024/03/31 03:16:28;;;;;;;;;;;;;;;15.82;46.91;98902.22;4969204;27;99350;-68
2024/03/31 03:18:54;;;;;;;;;;;;;;;15.81;46.94;98902.59;4935415;27;100093;-68
2024/03/31 03:21:21;;;;;;;;;;;;;;;15.79;46.85;98912.97;4937725;28;98876;-68
2024/03/31 03:23:48;;;;;;;;;;;;;;;15.77;46.90;98901.69;4937279;27;98114;-75
2024/03/31 03:26:14;;;;;;;;;;;;;;;15.75;46.77;98901.22;4939317;28;98065;-75
2024/03/31 03:28:48;;;;;;;;;;;;;;;15.74;47.02;98907.78;4924611;27;107295;-75
2024/03/31 03:31:14;;;;;;;;;;;;;;;15.71;46.86;98903.81;4955404;28;99118;-68
2024/03/31 03:33:41;;;;;;;;;;;;;;;15.70;46.84;98913.09;4939317;28;98727;-68
2024/03/31 03:36:08;;;;;;;;;;;;;;;15.68;46.97;98918.88;4917523;27;99746;-68
2024/03/31 03:38:34;;;;;;;;;;;;;;;15.66;47.01;98912.97;4921937;28;98019;-76
2024/03/31 03:41:01;;;;;;;;;;;;;;;15.65;46.90;98916.03;4917913;27;99253;-75
2024/03/31 03:43:32;;;;;;;;;;;;;;;15.63;46.93;98915.53;4950467;28;98157;-75
2024/03/31 03:46:02;;;;;;;;;;;;;;;15.60;46.98;98916.22;4941472;27;98966;-69
2024/03/31 03:48:28;;;;;;;;;;;;;;;15.58;46.98;98918.47;4935839;27;99137;-69
2024/03/31 03:50:55;;;;;;;;;;;;;;;15.57;46.94;98922.34;4957273;27;97975;-69
2024/03/31 03:53:22;;;;;;;;;;;;;;;15.56;46.93;98920.72;4933510;27;98628;-75
2024/03/31 03:55:48;;;;;;;;;;;;;;;15.53;46.92;98924.94;4926117;27;100832;-68
2024/03/31 03:58:15;;;;;;;;;;;;;;;15.50;47.09;98916.66;4940494;27;98357;-68
2024/03/31 04:00:42;;;;;;;;;;;;;;;15.48;46.90;98916.97;4924450;28;98327;-76
2024/03/31 04:03:08;;;;;;;;;;;;;;;15.47;47.03;98915.41;4938278;27;97940;-76
2024/03/31 04:05:36;;;;;;;;;;;;;;;15.45;46.83;98923.09;4934498;27;98557;-75
2024/03/31 04:08:03;;;;;;;;;;;;;;;15.43;47.00;98922.63;4936725;27;98096;-76
2024/03/31 04:10:29;;;;;;;;;;;;;;;15.42;46.94;98923.78;4941050;27;98436;-68
2024/03/31 04:12:56;;;;;;;;;;;;;;;15.39;47.09;98930.66;4937734;27;99451;-75
2024/03/31 04:15:23;;;;;;;;;;;;;;;15.37;47.07;98926.72;4936524;27;98993;-69
2024/03/31 04:17:50;;;;;;;;;;;;;;;15.36;46.99;98931.31;4937937;28;98097;-75
2024/03/31 04:20:17;;;;;;;;;;;;;;;15.36;47.15;98930.53;4936643;27;99629;-68
2024/03/31 04:22:43;;;;;;;;;;;;;;;15.33;46.94;98925.81;4938274;28;99071;-69
2024/03/31 04:25:09;;;;;;;;;;;;;;;15.32;46.87;98924.97;4922853;27;98279;-69
2024/03/31 04:27:36;;;;;;;;;;;;;;;15.31;47.07;98928.03;4931157;28;98281;-68
2024/03/31 04:30:02;;;;;;;;;;;;;;;15.29;47.20;98928.38;4942995;28;102257;-75
2024/03/31 04:32:28;;;;;;;;;;;;;;;15.27;47.05;98932.56;4967842;27;98291;-68
2024/03/31 04:34:56;;;;;;;;;;;;;;;15.26;46.85;98928.25;4954935;27;98003;-75
2024/03/31 04:37:23;;;;;;;;;;;;;;;15.24;47.01;98925.88;4956924;28;101451;-68
2024/03/31 04:39:51;;;;;;;;;;;;;;;15.23;47.08;98929.72;4936749;28;97957;-68
2024/03/31 04:42:19;;;;;;;;;;;;;;;15.22;47.15;98931.63;4933574;27;99436;-68
2024/03/31 04:44:45;;;;;;;;;;;;;;;15.19;47.29;98935.00;4936902;28;97807;-75
2024/03/31 04:47:13;;;;;;;;;;;;;;;15.19;46.93;98935.00;4935680;27;99669;-68
2024/03/31 04:49:44;;;;;;;;;;;;;;;15.18;46.84;98933.44;4952318;28;98261;-68
2024/03/31 04:52:11;;;;;;;;;;;;;;;15.16;46.92;98927.53;4925175;27;98154;-75
2024/03/31 04:54:39;;;;;;;;;;;;;;;15.17;46.98;98923.72;4922481;28;100770;-75
2024/03/31 04:57:05;;;;;;;;;;;;;;;15.17;47.24;98937.28;4923480;27;98156;-68
2024/03/31 04:59:32;;;;;;;;;;;;;;;15.16;47.02;98924.81;4924520;27;98145;-75
2024/03/31 05:01:58;;;;;;;;;;;;;;;15.17;47.16;98928.34;4923216;28;98722;-68
2024/03/31 05:04:25;;;;;;;;;;;;;;;15.17;47.05;98929.16;4937531;27;98960;-68
2024/03/31 05:06:51;;;;;;;;;;;;;;;15.17;46.97;98922.94;4937953;28;97925;-68
2024/03/31 05:09:17;;;;;;;;;;;;;;;15.18;47.33;98919.06;4935323;27;98675;-68
2024/03/31 05:11:44;;;;;;;;;;;;;;;15.19;47.04;98918.72;4936895;27;98275;-75
2024/03/31 05:14:11;;;;;;;;;;;;;;;15.20;46.85;98931.16;4938792;27;98161;-75
2024/03/31 05:16:37;;;;;;;;;;;;;;;15.22;46.99;98930.84;4918807;28;99533;-68
2024/03/31 05:19:03;;;;;;;;;;;;;;;15.24;46.91;98925.88;4942085;27;98346;-68
2024/03/31 05:21:29;;;;;;;;;;;;;;;15.27;47.07;98921.69;4936160;27;98381;-75
2024/03/31 05:23:56;;;;;;;;;;;;;;;15.30;46.81;98919.09;4953440;28;98419;-68
2024/03/31 05:26:22;;;;;;;;;;;;;;;15.33;46.63;98923.88;4937554;28;98016;-75
2024/03/31 05:28:49;;;;;;;;;;;;;;;15.36;46.70;98925.88;4938727;27;98210;-75
2024/03/31 05:31:15;;;;;;;;;;;;;;;15.41;46.92;98936.56;4934816;28;97962;-68
2024/03/31 05:33:42;;;;;;;;;;;;;;;15.44;46.79;98932.34;4935940;27;98392;-75
2024/03/31 05:36:09;;;;;;;;;;;;;;;15.48;46.69;98930.56;4931959;28;102128;-75
2024/03/31 05:38:35;;;;;;;;;;;;;;;15.54;46.64;98931.16;4934218;27;98199;-68
2024/03/31 05:41:02;;;;;;;;;;;;;;;15.58;46.83;98927.41;4922178;27;98291;-68
2024/03/31 05:43:29;;;;;;;;;;;;;;;15.63;46.77;98924.47;4940565;27;98252;-75
2024/03/31 05:45:55;;;;;;;;;;;;;;;15.68;46.63;98921.59;4941269;27;98262;-75
2024/03/31 05:48:21;;;;;;;;;;;;;;;15.74;46.82;98921.34;4933899;28;98159;-75
2024/03/31 05:50:47;;;;;;;;;;;;;;;15.78;46.71;98920.34;4941927;28;98235;-68
2024/03/31 05:53:14;;;;;;;;;;;;;;;15.84;46.73;98920.94;4939707;28;98021;-76
2024/03/31 05:55:40;;;;;;;;;;;;;;;15.88;46.55;98914.47;4935616;28;98295;-76
2024/03/31 05:58:06;;;;;;;;;;;;;;;15.94;46.44;98906.88;4937238;28;97915;-68
2024/03/31 06:00:37;;;;;;;;;;;;;;;16.01;46.58;98901.66;4943546;27;99110;-76
2024/03/31 06:03:03;;;;;;;;;;;;;;;16.09;46.37;98897.25;4939483;28;98273;-68
2024/03/31 06:05:30;;;;;;;;;;;;;;;16.16;46.43;98892.81;4943410;27;126719;-76
2024/03/31 06:07:56;;;;;;;;;;;;;;;16.25;46.51;98886.47;4940783;28;98863;-68
2024/03/31 06:10:22;;;;;;;;;;;;;;;16.34;46.49;98884.41;4919505;28;99429;-69
2024/03/31 06:12:49;;;;;;;;;;;;;;;16.43;46.35;98887.78;4920428;28;98521;-76
2024/03/31 06:15:16;;;;;;;;;;;;;;;16.52;46.26;98888.44;4922762;28;99594;-75
2024/03/31 06:17:43;;;;;;;;;;;;;;;16.61;46.20;98896.44;4933381;28;98074;-75
2024/03/31 06:20:10;;;;;;;;;;;;;;;16.72;46.08;98896.75;4922343;28;98223;-75
2024/03/31 06:22:41;;;;;;;;;;;;;;;16.81;46.51;98886.53;4940923;28;98017;-76
2024/03/31 06:25:07;;;;;;;;;;;;;;;16.89;46.24;98891.81;4939733;28;99085;-70
2024/03/31 06:27:34;;;;;;;;;;;;;;;17.01;46.12;98896.44;4955791;28;98097;-69
2024/03/31 06:30:01;;;;;;;;;;;;;;;17.11;46.12;98889.69;4926609;27;97986;-69
2024/03/31 06:32:27;;;;;;;;;;;;;;;17.24;45.84;98887.69;4954950;28;99328;-69
2024/03/31 06:34:54;;;;;;;;;;;;;;;17.36;46.07;98891.13;4935537;28;99450;-76
2024/03/31 06:37:21;;;;;;;;;;;;;;;17.48;45.94;98887.53;4938550;28;98106;-76
2024/03/31 06:39:48;;;;;;;;;;;;;;;17.59;45.90;98885.88;4937128;27;98487;-68
2024/03/31 06:42:16;;;;;;;;;;;;;;;17.65;45.82;98879.03;4926874;28;98006;-69
2024/03/31 06:44:43;;;;;;;;;;;;;;;17.74;45.91;98872.59;4934540;27;97981;-76
2024/03/31 06:47:10;;;;;;;;;;;;;;;17.85;45.92;98879.91;4936853;27;97995;-69
2024/03/31 06:49:36;;;;;;;;;;;;;;;17.96;45.83;98876.63;4947742;27;98664;-76
2024/03/31 06:52:03;;;;;;;;;;;;;;;18.06;45.84;98867.91;4936887;27;100131;-68
2024/03/31 06:54:30;;;;;;;;;;;;;;;18.15;45.86;98872.03;4951304;28;101321;-77
2024/03/31 06:56:58;;;;;;;;;;;;;;;18.25;45.66;98869.91;4938813;27;98657;-76
2024/03/31 06:59:24;;;;;;;;;;;;;;;18.36;45.63;98871.72;4916165;28;99836;-76
2024/03/31 07:01:51;;;;;;;;;;;;;;;18.53;45.42;98875.16;4937518;27;98764;-69
2024/03/31 07:04:18;;;;;;;;;;;;;;;18.71;45.47;98872.84;4919152;27;99445;-76
2024/03/31 07:06:45;;;;;;;;;;;;;;;18.89;45.37;98872.00;4933072;28;98470;-69
2024/03/31 07:09:12;;;;;;;;;;;;;;;19.08;45.23;98871.19;4937419;28;98181;-76
2024/03/31 07:11:39;;;;;;;;;;;;;;;19.30;45.36;98877.06;4937535;27;101276;-69
2024/03/31 07:14:06;;;;;;;;;;;;;;;19.49;45.11;98876.19;4933720;28;97867;-68
2024/03/31 07:16:33;;;;;;;;;;;;;;;19.69;45.06;98888.69;4938008;28;98922;-76
2024/03/31 07:19:00;;;;;;;;;;;;;;;19.91;45.06;98889.78;4933289;28;100665;-76
2024/03/31 07:21:27;;;;;;;;;;;;;;;20.13;44.75;98882.72;4900859;28;99642;-69
2024/03/31 07:23:55;;;;;;;;;;;;;;;20.42;44.78;98891.31;4947960;28;98335;-76
2024/03/31 07:26:22;;;;;;;;;;;;;;;20.68;44.65;98880.34;4905487;28;99836;-68
2024/03/31 07:28:48;;;;;;;;;;;;;;;20.91;44.50;98871.22;4901813;28;99590;-76
2024/03/31 07:31:16;;;;;;;;;;;;;;;21.12;44.36;98871.44;4918870;28;98219;-76
2024/03/31 07:33:43;;;;;;;;;;;;;;;21.37;44.41;98879.91;4901703;28;98161;-69
2024/03/31 07:36:09;;;;;;;;;;;;;;;21.65;44.40;98889.53;4911140;28;98502;-69
2024/03/31 07:38:36;;;;;;;;;;;;;;;21.89;44.22;98890.91;4916359;28;98076;-69
2024/03/31 07:41:03;;;;;;;;;;;;;;;22.11;44.06;98880.88;4915712;28;98810;-76
2024/03/31 07:43:29;;;;;;;;;;;;;;;22.29;44.06;98881.81;4933801;28;98196;-76
2024/03/31 07:45:56;;;;;;;;;;;;;;;22.41;44.15;98883.44;4918838;28;98036;-69
2024/03/31 07:48:22;;;;;;;;;;;;;;;22.54;44.11;98882.72;4901972;28;98445;-69
2024/03/31 07:50:50;;;;;;;;;;;;;;;22.47;44.38;98881.88;4916534;28;98159;-76
2024/03/31 07:53:17;;;;;;;;;;;;;;;22.44;44.71;98885.41;4915212;28;99626;-69
2024/03/31 07:55:43;;;;;;;;;;;;;;;22.55;44.63;98888.97;4915471;28;98104;-68
2024/03/31 07:58:09;;;;;;;;;;;;;;;22.77;44.25;98887.13;4934248;28;98591;-68
2024/03/31 08:00:36;;;;;;;;;;;;;;;23.11;44.24;98889.59;4917054;28;98107;-68
2024/03/31 08:03:02;;;;;;;;;;;;;;;23.57;43.71;98905.38;4917568;28;99886;-69
2024/03/31 08:05:29;;;;;;;;;;;;;;;23.83;43.93;98910.53;4928734;28;98137;-76
2024/03/31 08:07:56;;;;;;;;;;;;;;;24.15;43.67;98916.00;4881427;28;103467;-76
2024/03/31 08:10:24;;;;;;;;;;;;;;;24.38;43.54;98934.06;4893197;28;98373;-76
2024/03/31 08:12:51;;;;;;;;;;;;;;;24.44;43.65;98951.75;4910531;28;101585;-76
2024/03/31 08:15:17;;;;;;;;;;;;;;;24.36;44.09;98959.22;4913026;28;98249;-69
2024/03/31 08:17:44;;;;;;;;;;;;;;;24.33;44.19;98951.75;4913664;28;98279;-70
2024/03/31 08:20:10;;;;;;;;;;;;;;;24.19;44.33;98935.25;4937147;27;100274;-69
2024/03/31 08:22:37;;;;;;;;;;;;;;;24.14;44.55;98930.94;4919574;27;98177;-69
2024/03/31 08:25:03;;;;;;;;;;;;;;;24.31;44.31;98934.84;4948333;27;98497;-70
2024/03/31 08:27:31;;;;;;;;;;;;;;;24.69;44.02;98940.69;4934591;28;98246;-76
2024/03/31 08:29:57;;;;;;;;;;;;;;;25.33;43.34;98934.91;4917690;27;98290;-69
2024/03/31 08:32:24;;;;;;;;;;;;;;;25.99;43.06;98920.25;4938076;28;98317;-70
2024/03/31 08:34:50;;;;;;;;;;;;;;;26.56;42.73;98927.97;4936357;28;98305;-70
2024/03/31 08:37:20;;;;;;;;;;;;;;;27.13;42.45;98926.53;4933313;27;98276;-76
2024/03/31 08:39:46;;;;;;;;;;;;;;;27.67;42.49;98937.59;4921791;27;98763;-70
2024/03/31 08:42:24;;;;;;;;;;;;;;;28.20;41.92;98929.63;4916420;27;99821;-71
2024/03/31 08:44:51;;;;;;;;;;;;;;;28.74;42.00;98937.72;4932424;28;100806;-76
2024/03/31 08:47:27;;;;;;;;;;;;;;;29.25;41.95;98924.41;4928435;27;98297;-70
2024/03/31 08:49:58;;;;;;;;;;;;;;;29.73;41.58;98923.69;4918725;28;98255;-70
2024/03/31 08:52:25;;;;;;;;;;;;;;;30.23;41.43;98921.69;4931132;27;98631;-70
2024/03/31 08:54:52;;;;;;;;;;;;;;;30.68;41.32;98921.59;4949430;28;98737;-71
2024/03/31 08:57:18;;;;;;;;;;;;;;;31.15;41.30;98931.41;4935083;27;98140;-75
2024/03/31 08:59:50;;;;;;;;;;;;;;;31.57;41.10;98929.34;4916335;27;102750;-76
2024/03/31 09:02:26;;;;;;;;;;;;;;;32.02;40.91;98929.03;4913436;27;98670;-76
2024/03/31 09:04:52;;;;;;;;;;;;;;;32.48;40.82;98928.69;4921972;27;98529;-76
2024/03/31 09:07:20;;;;;;;;;;;;;;;32.90;41.19;98914.44;4964953;27;103404;-76
2024/03/31 09:09:47;;;;;;;;;;;;;;;33.32;40.98;98916.81;4945948;27;98227;-76
2024/03/31 09:12:13;;;;;;;;;;;;;;;33.73;40.83;98929.56;4931173;27;98085;-76
2024/03/31 09:14:41;;;;;;;;;;;;;;;34.12;40.92;98927.16;4953349;27;98430;-76
2024/03/31 09:17:08;;;;;;;;;;;;;;;34.52;40.84;98924.22;4921104;27;100391;-71
2024/03/31 09:19:35;;;;;;;;;;;;;;;34.91;40.37;98939.25;4915885;27;98028;-77
2024/03/31 09:22:01;;;;;;;;;;;;;;;35.26;40.69;98932.50;4935277;27;99393;-78
2024/03/31 09:24:31;;;;;;;;;;;;;;;35.53;40.57;98937.19;4923077;27;98629;-77
2024/03/31 09:26:57;;;;;;;;;;;;;;;35.86;40.61;98920.38;4954807;28;97977;-71
2024/03/31 09:29:30;;;;;;;;;;;;;;;36.26;40.21;98928.34;4960142;27;98269;-77
2024/03/31 09:32:11;;;;;;;;;;;;;;;36.72;40.03;98936.38;4939399;27;99966;-77
2024/03/31 09:34:45;;;;;;;;;;;;;;;37.19;40.19;98934.66;4938995;27;98832;-71
2024/03/31 09:37:11;;;;;;;;;;;;;;;37.57;39.79;98935.75;4944958;27;99801;-74
2024/03/31 09:39:40;;;;;;;;;;;;;;;37.77;39.74;98938.63;4935187;27;99038;-74
2024/03/31 09:42:07;;;;;;;;;;;;;;;37.88;39.75;98926.00;4933448;28;98469;-74
2024/03/31 09:44:37;;;;;;;;;;;;;;;37.97;40.37;98928.69;4925201;27;98449;-70
2024/03/31 09:47:22;;;;;;;;;;;;;;;38.07;40.07;98932.88;4941567;28;99377;-70
2024/03/31 09:50:04;;;;;;;;;;;;;;;38.16;40.12;98937.59;4936304;27;98655;-74
2024/03/31 09:52:34;;;;;;;;;;;;;;;38.31;40.23;98927.78;4952686;27;98589;-69
2024/03/31 09:55:14;;;;;;;;;;;;;;;38.47;39.92;98925.69;4935115;28;99507;-74
2024/03/31 09:57:46;;;;;;;;;;;;;;;38.54;39.64;98931.66;4940230;27;98321;-74
2024/03/31 10:00:16;;;;;;;;;;;;;;;38.62;39.63;98932.00;4955176;27;99443;-74
2024/03/31 10:02:52;;;;;;;;;;;;;;;38.73;39.72;98928.53;4942343;28;100169;-70
2024/03/31 10:05:28;;;;;;;;;;;;;;;38.93;39.87;98927.69;4940409;27;98127;-74
2024/03/31 10:07:55;;;;;;;;;;;;;;;39.09;39.42;98932.69;4914929;27;98049;-70
2024/03/31 10:10:22;;;;;;;;;;;;;;;39.25;39.60;98920.81;4933946;28;99013;-74
2024/03/31 10:12:49;;;;;;;;;;;;;;;39.38;39.46;98925.25;4936092;27;98220;-74
2024/03/31 10:15:15;;;;;;;;;;;;;;;39.49;39.33;98926.09;4950085;28;98378;-70
2024/03/31 10:17:42;;;;;;;;;;;;;;;39.70;39.15;98921.13;4907655;27;99232;-69
2024/03/31 10:20:09;;;;;;;;;;;;;;;39.93;38.97;98921.22;4922334;28;98384;-74
2024/03/31 10:22:36;;;;;;;;;;;;;;;40.07;39.02;98920.28;4931464;27;98345;-74
2024/03/31 10:25:03;;;;;;;;;;;;;;;40.22;39.03;98923.69;4946756;28;98517;-70
2024/03/31 10:27:29;;;;;;;;;;;;;;;40.40;38.73;98922.47;4936816;27;98006;-74
2024/03/31 10:29:56;;;;;;;;;;;;;;;40.53;38.69;98912.75;4950588;27;98396;-74
2024/03/31 10:32:23;;;;;;;;;;;;;;;40.61;38.70;98910.97;4923252;27;98505;-74
2024/03/31 10:34:50;;;;;;;;;;;;;;;40.69;38.56;98921.25;4957167;27;98179;-70
2024/03/31 10:37:17;;;;;;;;;;;;;;;40.70;38.47;98910.72;4934559;28;98010;-68
2024/03/31 10:39:47;;;;;;;;;;;;;;;40.72;38.53;98914.59;4907652;27;99655;-68
2024/03/31 10:42:13;;;;;;;;;;;;;;;40.77;38.59;98915.88;4937536;28;98291;-72
2024/03/31 10:44:40;;;;;;;;;;;;;;;40.82;38.75;98911.50;4950514;27;98681;-72
2024/03/31 10:47:07;;;;;;;;;;;;;;;40.86;38.41;98912.78;4915674;28;99273;-72
2024/03/31 10:49:39;;;;;;;;;;;;;;;40.86;38.46;98912.78;4934747;28;99944;-68
2024/03/31 10:52:11;;;;;;;;;;;;;;;40.85;38.82;98902.03;4938538;27;98291;-68
2024/03/31 10:54:38;;;;;;;;;;;;;;;40.81;38.83;98907.16;4932744;27;99668;-72
2024/03/31 10:57:10;;;;;;;;;;;;;;;40.78;38.71;98917.41;4939466;27;98339;-72
2024/03/31 10:59:37;;;;;;;;;;;;;;;40.72;38.87;98906.13;4923625;27;98049;-68
2024/03/31 11:02:22;;;;;;;;;;;;;;;40.66;39.05;98907.38;4938857;28;98562;-68
2024/03/31 11:05:03;;;;;;;;;;;;;;;40.53;38.84;98902.22;4954907;27;98253;-72
2024/03/31 11:07:31;;;;;;;;;;;;;;;40.38;38.89;98907.31;4938618;27;99924;-69
2024/03/31 11:10:00;;;;;;;;;;;;;;;40.26;39.29;98905.75;4920983;27;98107;-69
2024/03/31 11:12:26;;;;;;;;;;;;;;;40.18;39.20;98903.41;4923838;27;98192;-69
2024/03/31 11:14:53;;;;;;;;;;;;;;;40.15;38.86;98903.66;4918665;27;99198;-73
2024/03/31 11:17:19;;;;;;;;;;;;;;;40.15;38.97;98898.78;4914208;28;98488;-69
2024/03/31 11:19:46;;;;;;;;;;;;;;;40.21;38.87;98893.19;4936335;27;98280;-69
2024/03/31 11:22:13;;;;;;;;;;;;;;;40.16;38.92;98888.28;4939749;27;98368;-70
2024/03/31 11:24:39;;;;;;;;;;;;;;;40.07;38.90;98889.25;4916333;27;98020;-73
2024/03/31 11:27:06;;;;;;;;;;;;;;;39.88;38.81;98891.75;4931051;28;98066;-68
2024/03/31 11:29:32;;;;;;;;;;;;;;;39.84;39.15;98887.63;4938509;28;98240;-72
2024/03/31 11:31:59;;;;;;;;;;;;;;;39.79;39.02;98880.69;4917189;27;99510;-69
2024/03/31 11:34:26;;;;;;;;;;;;;;;39.63;39.35;98879.31;4939877;28;98331;-73
2024/03/31 11:36:52;;;;;;;;;;;;;;;39.53;39.10;98873.09;4950900;27;99456;-69
2024/03/31 11:39:19;;;;;;;;;;;;;;;39.52;39.18;98873.59;4920429;28;98308;-72
2024/03/31 11:41:46;;;;;;;;;;;;;;;39.42;39.27;98869.44;4935395;27;103199;-69
2024/03/31 11:44:13;;;;;;;;;;;;;;;39.21;39.49;98857.50;4935628;27;99212;-69
2024/03/31 11:46:39;;;;;;;;;;;;;;;39.13;39.54;98848.00;4940602;27;98557;-73
2024/03/31 11:49:05;;;;;;;;;;;;;;;38.96;39.69;98854.28;4939320;27;98732;-69
2024/03/31 11:51:32;;;;;;;;;;;;;;;38.95;39.58;98846.34;4915706;27;98252;-72
2024/03/31 11:53:58;;;;;;;;;;;;;;;38.82;39.77;98837.53;4935835;27;98193;-72
2024/03/31 11:56:25;;;;;;;;;;;;;;;38.46;39.78;98836.94;4936607;27;98035;-72
2024/03/31 11:58:52;;;;;;;;;;;;;;;37.96;40.37;98814.69;4933756;27;100795;-69
2024/03/31 12:01:19;;;;;;;;;;;;;;;37.66;40.35;98806.41;4934923;27;98392;-72
2024/03/31 12:03:55;;;;;;;;;;;;;;;37.33;40.11;98801.09;4917203;27;99976;-69
2024/03/31 12:06:22;;;;;;;;;;;;;;;36.78;40.66;98796.19;4921013;27;98379;-72
2024/03/31 12:08:50;;;;;;;;;;;;;;;36.28;41.07;98794.06;4960098;27;98467;-72
2024/03/31 12:11:19;;;;;;;;;;;;;;;35.80;41.27;98802.56;4929815;27;99046;-72
2024/03/31 12:13:48;;;;;;;;;;;;;;;35.27;41.48;98797.63;4932591;27;99743;-73
2024/03/31 12:16:18;;;;;;;;;;;;;;;34.77;41.68;98797.22;4916268;27;98734;-69
2024/03/31 12:18:44;;;;;;;;;;;;;;;34.43;41.65;98801.19;4931353;28;98953;-70
2024/03/31 12:21:11;;;;;;;;;;;;;;;34.05;41.97;98790.53;4930932;27;98238;-69
2024/03/31 12:23:38;;;;;;;;;;;;;;;33.73;41.57;98792.69;4931477;27;99851;-73
2024/03/31 12:26:04;;;;;;;;;;;;;;;33.38;41.70;98778.97;4929755;28;102856;-73
2024/03/31 12:28:31;;;;;;;;;;;;;;;33.04;41.97;98793.91;4938654;27;98321;-73
2024/03/31 12:30:58;;;;;;;;;;;;;;;32.76;42.12;98795.81;4917445;28;99618;-69
2024/03/31 12:33:25;;;;;;;;;;;;;;;32.70;42.16;98794.88;4939333;27;98236;-73
2024/03/31 12:35:53;;;;;;;;;;;;;;;32.93;41.61;98804.72;4948872;27;98713;-73
2024/03/31 12:38:19;;;;;;;;;;;;;;;32.83;41.71;98805.91;4957965;27;98314;-69
2024/03/31 12:40:46;;;;;;;;;;;;;;;32.85;41.22;98817.38;4932154;28;100068;-73
2024/03/31 12:43:21;;;;;;;;;;;;;;;32.83;41.63;98820.63;4938338;27;98723;-72
2024/03/31 12:45:48;;;;;;;;;;;;;;;33.02;40.85;98817.97;4922593;27;100186;-69